createdAt,value
2023-05-15T00:01:04.511Z,5.00
2023-05-15T00:06:07.447Z,4.00
2023-05-15T00:11:11.829Z,5.25
2023-05-15T00:16:14.665Z,3.75
2023-05-15T00:21:18.061Z,5.00
2023-05-15T00:26:25.193Z,4.00
2023-05-15T00:31:28.187Z,5.00
2023-05-15T00:36:31.232Z,4.00
2023-05-15T00:41:37.738Z,4.00
2023-05-15T00:46:41.914Z,4.00
2023-05-15T00:51:44.835Z,5.00
2023-05-15T00:56:50.868Z,4.00
2023-05-15T01:01:53.665Z,4.00
2023-05-15T01:06:56.820Z,3.25
2023-05-15T01:12:03.328Z,5.50
2023-05-15T01:17:06.158Z,3.00
2023-05-15T01:22:38.552Z,3.00
2023-05-15T01:27:46.201Z,4.00
2023-05-15T01:32:55.125Z,4.00
2023-05-15T01:38:14.030Z,3.00
2023-05-15T01:43:23.002Z,3.00
2023-05-15T01:48:27.445Z,4.00
2023-05-15T01:53:33.857Z,3.25
2023-05-15T01:58:39.269Z,4.00
2023-05-15T02:03:44.134Z,3.75
2023-05-15T02:08:49.125Z,3.50
2023-05-15T02:13:55.905Z,3.00
2023-05-15T02:18:58.761Z,4.00
2023-05-15T02:24:01.619Z,3.75
2023-05-15T02:29:19.447Z,4.00
2023-05-15T02:34:29.203Z,4.50
2023-05-15T02:39:34.464Z,4.75
2023-05-15T02:44:39.930Z,4.00
2023-05-15T02:49:43.132Z,4.00
2023-05-15T02:54:45.990Z,4.00
2023-05-15T02:59:50.207Z,3.25
2023-05-15T03:04:53.065Z,4.00
2023-05-15T03:09:56.112Z,3.00
2023-05-15T03:15:00.751Z,3.50
2023-05-15T03:20:04.713Z,4.00
2023-05-15T03:25:08.915Z,3.00
2023-05-15T03:30:13.464Z,2.50
2023-05-15T03:35:16.625Z,3.00
2023-05-15T03:40:19.863Z,4.00
2023-05-15T03:45:24.237Z,3.75
2023-05-15T03:50:27.256Z,3.00
2023-05-15T03:55:30.182Z,4.00
2023-05-15T04:00:34.325Z,4.75
2023-05-15T04:05:37.206Z,3.00
2023-05-15T04:10:40.072Z,4.00
2023-05-15T04:15:44.290Z,3.00
2023-05-15T04:20:47.141Z,3.75
2023-05-15T04:25:49.984Z,3.50
2023-05-15T04:30:54.096Z,4.00
2023-05-15T04:35:56.904Z,3.25
2023-05-15T04:40:59.600Z,3.00
2023-05-15T04:46:03.835Z,4.00
2023-05-15T04:51:07.521Z,3.00
2023-05-15T04:56:10.810Z,3.00
2023-05-15T05:01:15.065Z,3.50
2023-05-15T05:06:17.910Z,3.25
2023-05-15T05:11:21.540Z,3.75
2023-05-15T05:16:25.727Z,4.00
2023-05-15T05:21:28.667Z,4.00
2023-05-15T05:26:31.484Z,2.75
2023-05-15T05:31:35.648Z,3.00
2023-05-15T05:36:38.710Z,2.25
2023-05-15T05:41:41.514Z,3.00
2023-05-15T05:46:46.337Z,3.25
2023-05-15T05:51:49.110Z,3.00
2023-05-15T05:56:51.830Z,2.75
2023-05-15T06:01:56.107Z,2.25
2023-05-15T06:06:58.829Z,3.00
2023-05-15T06:12:04.582Z,2.75
2023-05-15T06:17:09.294Z,2.25
2023-05-15T06:22:12.126Z,3.00
2023-05-15T06:27:14.890Z,2.75
2023-05-15T06:32:19.107Z,3.25
2023-05-15T06:37:22.089Z,3.00
2023-05-15T06:42:24.844Z,3.00
2023-05-15T06:47:29.006Z,3.00
2023-05-15T06:52:31.815Z,3.25
2023-05-15T06:57:34.812Z,12.50
2023-05-15T07:02:39.144Z,15.00
2023-05-15T07:07:42.735Z,13.80
2023-05-15T07:12:45.986Z,15.20
2023-05-15T07:17:50.363Z,15.40
2023-05-15T07:22:56.820Z,15.80
2023-05-15T07:28:00.072Z,15.20
2023-05-15T07:33:04.523Z,15.00
2023-05-15T07:38:08.055Z,15.75
2023-05-15T07:43:11.017Z,16.00
2023-05-15T07:48:20.615Z,15.60
2023-05-15T07:53:23.528Z,16.00
2023-05-15T07:58:27.362Z,14.75
2023-05-15T08:03:31.877Z,16.00
2023-05-15T08:08:34.849Z,15.80
2023-05-15T08:13:37.772Z,17.20
2023-05-15T08:18:41.997Z,16.50
2023-05-15T08:23:44.837Z,14.00
2023-05-15T08:28:47.612Z,17.60
2023-05-15T08:33:51.738Z,13.75
2023-05-15T08:38:54.508Z,16.00
2023-05-15T08:43:59.384Z,11.50
2023-05-15T08:49:12.464Z,14.60
2023-05-15T08:54:16.469Z,15.00
2023-05-15T08:59:19.561Z,11.75
2023-05-15T09:04:23.820Z,11.75
2023-05-15T09:09:29.269Z,11.50
2023-05-15T09:14:32.017Z,11.75
2023-05-15T09:19:37.224Z,11.50
2023-05-15T09:24:40.010Z,10.50
2023-05-15T09:29:42.939Z,9.00
2023-05-15T09:34:47.253Z,10.00
2023-05-15T09:39:50.355Z,9.00
2023-05-15T09:44:53.358Z,8.00
2023-05-15T09:49:57.734Z,8.75
2023-05-15T09:55:00.783Z,9.00
2023-05-15T10:00:10.274Z,10.00
2023-05-15T10:05:16.702Z,9.25
2023-05-15T10:10:19.569Z,7.50
2023-05-15T10:15:23.661Z,8.00
2023-05-15T10:20:28.322Z,8.00
2023-05-15T10:25:39.152Z,8.50
2023-05-15T10:30:43.531Z,8.00
2023-05-15T10:35:49.462Z,7.50
2023-05-15T10:40:59.732Z,8.00
2023-05-15T10:46:06.877Z,9.25
2023-05-15T10:51:17.095Z,9.25
2023-05-15T10:56:20.100Z,9.00
2023-05-15T11:01:36.217Z,9.25
2023-05-15T11:06:43.747Z,9.25
2023-05-15T11:11:58.003Z,9.00
2023-05-15T11:17:04.765Z,9.75
2023-05-15T11:22:20.688Z,9.00
2023-05-15T11:27:26.113Z,11.00
2023-05-15T11:32:49.235Z,8.50
2023-05-15T11:37:54.949Z,9.00
2023-05-15T11:43:05.914Z,9.00
2023-05-15T11:48:13.421Z,8.00
2023-05-15T11:53:18.001Z,10.00
2023-05-15T11:58:23.279Z,8.50
2023-05-15T12:03:27.925Z,10.00
2023-05-15T12:08:34.416Z,9.75
2023-05-15T12:13:37.589Z,7.00
2023-05-15T12:18:40.473Z,8.25
2023-05-15T12:24:03.538Z,7.50
2023-05-15T12:29:10.646Z,9.00
2023-05-15T12:34:13.892Z,8.50
2023-05-15T12:39:18.287Z,8.50
2023-05-15T12:44:22.043Z,9.75
2023-05-15T12:49:24.892Z,10.25
2023-05-15T12:54:29.041Z,11.75
2023-05-15T12:59:32.621Z,10.00
2023-05-15T13:04:36.002Z,9.75
2023-05-15T13:09:41.187Z,69.00
2023-05-15T13:14:44.248Z,38.40
2023-05-15T13:19:46.981Z,58.80
2023-05-15T13:24:53.001Z,82.40
2023-05-15T13:29:55.881Z,105.67
2023-05-15T13:34:58.726Z,91.40
2023-05-15T13:40:06.504Z,78.00
2023-05-15T13:45:10.664Z,83.60
2023-05-15T13:50:15.261Z,85.00
2023-05-15T13:55:21.472Z,81.60
2023-05-15T14:00:26.094Z,70.00
2023-05-15T14:05:29.271Z,65.60
2023-05-15T14:10:36.259Z,61.40
2023-05-15T14:15:39.329Z,59.80
2023-05-15T14:20:42.125Z,60.60
2023-05-15T14:25:46.441Z,61.40
2023-05-15T14:30:49.413Z,61.60
2023-05-15T14:35:52.586Z,60.20
2023-05-15T14:40:56.919Z,55.60
2023-05-15T14:45:59.830Z,59.00
2023-05-15T14:51:03.108Z,59.60
2023-05-15T14:56:07.631Z,52.60
2023-05-15T15:01:10.656Z,58.00
2023-05-15T15:06:13.616Z,53.20
2023-05-15T15:11:17.809Z,53.00
2023-05-15T15:16:20.625Z,50.60
2023-05-15T15:21:23.660Z,53.20
2023-05-15T15:26:28.996Z,46.60
2023-05-15T15:31:32.528Z,47.40
2023-05-15T15:36:37.627Z,48.60
2023-05-15T15:41:41.909Z,45.80
2023-05-15T15:46:44.943Z,45.40
2023-05-15T15:51:47.858Z,41.20
2023-05-15T15:56:52.625Z,42.00
2023-05-15T16:01:55.710Z,41.40
2023-05-15T16:06:58.597Z,41.60
2023-05-15T16:12:03.637Z,38.40
2023-05-15T16:17:06.559Z,37.40
2023-05-15T16:22:09.447Z,38.20
2023-05-15T16:27:13.532Z,35.20
2023-05-15T16:32:16.405Z,28.20
2023-05-15T16:37:19.456Z,27.60
2023-05-15T16:42:23.874Z,25.40
2023-05-15T16:47:26.694Z,25.00
2023-05-15T16:52:29.755Z,24.80
2023-05-15T16:57:33.950Z,22.00
2023-05-15T17:02:37.176Z,22.00
2023-05-15T17:07:40.183Z,20.00
2023-05-15T17:12:44.809Z,19.00
2023-05-15T17:17:47.714Z,18.20
2023-05-15T17:22:50.649Z,18.20
2023-05-15T17:27:55.048Z,16.20
2023-05-15T17:32:57.981Z,16.40
2023-05-15T17:38:00.877Z,16.40
2023-05-15T17:43:05.268Z,16.60
2023-05-15T17:48:08.186Z,15.00
2023-05-15T17:53:10.968Z,14.60
2023-05-15T17:58:15.283Z,14.80
2023-05-15T18:03:18.187Z,16.40
2023-05-15T18:08:21.157Z,14.00
2023-05-15T18:13:25.348Z,13.60
2023-05-15T18:18:28.232Z,14.60
2023-05-15T18:23:31.320Z,16.20
2023-05-15T18:28:35.506Z,12.60
2023-05-15T18:33:39.580Z,13.00
2023-05-15T18:38:42.562Z,14.00
2023-05-15T18:43:47.331Z,14.80
2023-05-15T18:48:50.194Z,13.40
2023-05-15T18:53:53.091Z,14.00
2023-05-15T18:58:57.274Z,14.50
2023-05-15T19:04:00.228Z,12.80
2023-05-15T19:09:03.303Z,14.00
2023-05-15T19:14:07.930Z,12.60
2023-05-15T19:19:11.123Z,13.80
2023-05-15T19:24:14.136Z,12.60
2023-05-15T19:29:18.283Z,11.00
2023-05-15T19:34:21.132Z,13.20
2023-05-15T19:39:24.018Z,12.80
2023-05-15T19:44:28.325Z,12.80
2023-05-15T19:49:31.141Z,12.25
2023-05-15T19:54:34.090Z,11.50
2023-05-15T19:59:38.643Z,10.50
2023-05-15T20:04:41.437Z,11.00
2023-05-15T20:09:44.213Z,12.00
2023-05-15T20:14:51.779Z,12.20
2023-05-15T20:19:54.676Z,11.00
2023-05-15T20:24:57.431Z,10.50
2023-05-15T20:30:03.416Z,10.20
2023-05-15T20:35:07.476Z,12.60
2023-05-15T20:40:12.811Z,10.25
2023-05-15T20:45:17.157Z,9.40
2023-05-15T20:50:20.735Z,10.50
2023-05-15T20:55:23.553Z,11.00
2023-05-15T21:00:28.198Z,11.00
2023-05-15T21:05:31.294Z,9.50
2023-05-15T21:10:34.034Z,10.00
2023-05-15T21:15:38.383Z,10.00
2023-05-15T21:20:41.232Z,10.00
2023-05-15T21:25:44.027Z,8.75
2023-05-15T21:30:48.298Z,10.00
2023-05-15T21:35:51.318Z,10.20
2023-05-15T21:40:54.439Z,10.50
2023-05-15T21:45:58.789Z,9.00
2023-05-15T21:51:01.756Z,9.00
2023-05-15T21:56:04.942Z,10.00
2023-05-15T22:01:09.226Z,9.00
2023-05-15T22:06:12.089Z,9.00
2023-05-15T22:11:15.337Z,9.25
2023-05-15T22:16:19.662Z,9.25
2023-05-15T22:21:22.473Z,9.00
2023-05-15T22:26:25.493Z,8.25
2023-05-15T22:31:29.665Z,8.75
2023-05-15T22:36:35.087Z,9.00
2023-05-15T22:41:37.834Z,7.75
2023-05-15T22:46:42.466Z,7.75
2023-05-15T22:51:45.287Z,7.00
2023-05-15T22:56:48.115Z,9.00
2023-05-15T23:01:52.487Z,8.75
2023-05-15T23:06:55.788Z,8.00
2023-05-15T23:11:58.541Z,7.50
2023-05-15T23:17:02.758Z,8.00
2023-05-15T23:22:05.828Z,8.50
2023-05-15T23:27:08.663Z,7.75
2023-05-15T23:32:13.150Z,6.00
2023-05-15T23:37:16.682Z,7.50
2023-05-15T23:42:19.538Z,8.75
2023-05-15T23:47:23.861Z,7.00
2023-05-15T23:52:26.708Z,7.75
2023-05-15T23:57:29.516Z,8.00
